sensor_id;sensor_type;location;lat;lon;timestamp;temperature;humidity
45283;DHT22;31023;44.994;1.796;2022-12-29T00:01:16;10.00;99.90
45283;DHT22;31023;44.994;1.796;2022-12-29T00:03:42;9.90;99.90
45283;DHT22;31023;44.994;1.796;2022-12-29T00:06:10;9.90;99.90
45283;DHT22;31023;44.994;1.796;2022-12-29T00:08:36;9.90;99.90
45283;DHT22;31023;44.994;1.796;2022-12-29T00:11:09;9.90;99.90
45283;DHT22;31023;44.994;1.796;2022-12-29T00:13:35;9.90;99.90
45283;DHT22;31023;44.994;1.796;2022-12-29T00:16:20;9.90;99.90
45283;DHT22;31023;44.994;1.796;2022-12-29T00:18:46;9.90;99.90
45283;DHT22;31023;44.994;1.796;2022-12-29T00:21:16;9.90;99.90
45283;DHT22;31023;44.994;1.796;2022-12-29T00:24:00;9.90;99.90
45283;DHT22;31023;44.994;1.796;2022-12-29T00:26:46;9.90;99.90
45283;DHT22;31023;44.994;1.796;2022-12-29T00:29:31;9.90;99.90
45283;DHT22;31023;44.994;1.796;2022-12-29T00:32:15;9.90;99.90
45283;DHT22;31023;44.994;1.796;2022-12-29T00:34:59;9.80;99.90
45283;DHT22;31023;44.994;1.796;2022-12-29T00:37:38;9.80;99.90
45283;DHT22;31023;44.994;1.796;2022-12-29T00:40:24;9.90;99.90
45283;DHT22;31023;44.994;1.796;2022-12-29T00:43:08;9.90;99.90
45283;DHT22;31023;44.994;1.796;2022-12-29T00:45:52;9.90;99.90
45283;DHT22;31023;44.994;1.796;2022-12-29T00:48:18;9.90;99.90
45283;DHT22;31023;44.994;1.796;2022-12-29T00:51:02;10.00;99.90
45283;DHT22;31023;44.994;1.796;2022-12-29T00:53:28;10.00;99.90
45283;DHT22;31023;44.994;1.796;2022-12-29T00:55:53;10.00;99.90
45283;DHT22;31023;44.994;1.796;2022-12-29T00:58:19;9.80;99.90
45283;DHT22;31023;44.994;1.796;2022-12-29T01:00:45;9.70;99.90
45283;DHT22;31023;44.994;1.796;2022-12-29T01:03:10;9.60;99.90
45283;DHT22;31023;44.994;1.796;2022-12-29T01:05:36;9.50;99.90
45283;DHT22;31023;44.994;1.796;2022-12-29T01:08:02;9.40;99.90
45283;DHT22;31023;44.994;1.796;2022-12-29T01:10:28;9.30;99.90
45283;DHT22;31023;44.994;1.796;2022-12-29T01:12:55;9.30;99.90
45283;DHT22;31023;44.994;1.796;2022-12-29T01:15:21;9.10;99.90
45283;DHT22;31023;44.994;1.796;2022-12-29T01:17:47;9.10;99.90
45283;DHT22;31023;44.994;1.796;2022-12-29T01:20:13;9.20;99.90
45283;DHT22;31023;44.994;1.796;2022-12-29T01:22:39;9.10;99.90
45283;DHT22;31023;44.994;1.796;2022-12-29T01:25:05;9.10;99.90
45283;DHT22;31023;44.994;1.796;2022-12-29T01:27:31;9.10;99.90
45283;DHT22;31023;44.994;1.796;2022-12-29T01:29:57;9.10;99.90
45283;DHT22;31023;44.994;1.796;2022-12-29T01:32:23;9.00;99.90
45283;DHT22;31023;44.994;1.796;2022-12-29T01:34:48;9.10;99.90
45283;DHT22;31023;44.994;1.796;2022-12-29T01:37:14;9.10;99.90
45283;DHT22;31023;44.994;1.796;2022-12-29T01:39:40;9.00;99.90
45283;DHT22;31023;44.994;1.796;2022-12-29T01:42:16;9.00;99.90
45283;DHT22;31023;44.994;1.796;2022-12-29T01:44:49;9.00;99.90
45283;DHT22;31023;44.994;1.796;2022-12-29T01:47:32;8.90;99.90
45283;DHT22;31023;44.994;1.796;2022-12-29T01:50:06;8.80;99.90
45283;DHT22;31023;44.994;1.796;2022-12-29T01:52:35;8.90;99.90
45283;DHT22;31023;44.994;1.796;2022-12-29T01:55:03;8.80;99.90
45283;DHT22;31023;44.994;1.796;2022-12-29T01:57:32;8.90;99.90
45283;DHT22;31023;44.994;1.796;2022-12-29T02:00:05;9.10;99.90
45283;DHT22;31023;44.994;1.796;2022-12-29T02:02:33;9.10;99.90
45283;DHT22;31023;44.994;1.796;2022-12-29T02:05:04;9.00;99.90
45283;DHT22;31023;44.994;1.796;2022-12-29T02:07:31;8.90;99.90
45283;DHT22;31023;44.994;1.796;2022-12-29T02:09:57;9.00;99.90
45283;DHT22;31023;44.994;1.796;2022-12-29T02:12:23;9.00;99.90
45283;DHT22;31023;44.994;1.796;2022-12-29T02:14:55;9.20;99.90
45283;DHT22;31023;44.994;1.796;2022-12-29T02:32:13;9.50;99.90
45283;DHT22;31023;44.994;1.796;2022-12-29T02:40:55;9.30;99.90
45283;DHT22;31023;44.994;1.796;2022-12-29T02:43:39;9.30;99.90
45283;DHT22;31023;44.994;1.796;2022-12-29T02:48:45;9.60;99.90
45283;DHT22;31023;44.994;1.796;2022-12-29T02:51:29;9.70;99.90
45283;DHT22;31023;44.994;1.796;2022-12-29T02:53:57;9.70;99.90
45283;DHT22;31023;44.994;1.796;2022-12-29T02:56:42;9.80;99.90
45283;DHT22;31023;44.994;1.796;2022-12-29T02:59:08;9.80;99.90
45283;DHT22;31023;44.994;1.796;2022-12-29T03:01:40;9.90;99.90
45283;DHT22;31023;44.994;1.796;2022-12-29T03:12:55;9.90;99.90
45283;DHT22;31023;44.994;1.796;2022-12-29T03:15:46;9.90;99.90
45283;DHT22;31023;44.994;1.796;2022-12-29T03:24:22;10.00;99.90
45283;DHT22;31023;44.994;1.796;2022-12-29T03:26:49;10.00;99.90
45283;DHT22;31023;44.994;1.796;2022-12-29T03:29:18;10.10;99.90
45283;DHT22;31023;44.994;1.796;2022-12-29T03:31:47;10.10;99.90
45283;DHT22;31023;44.994;1.796;2022-12-29T03:34:15;10.20;99.90
45283;DHT22;31023;44.994;1.796;2022-12-29T03:36:52;10.10;99.90
45283;DHT22;31023;44.994;1.796;2022-12-29T03:39:21;10.10;99.90
45283;DHT22;31023;44.994;1.796;2022-12-29T03:41:50;10.10;99.90
45283;DHT22;31023;44.994;1.796;2022-12-29T03:44:19;10.00;99.90
45283;DHT22;31023;44.994;1.796;2022-12-29T03:46:45;10.10;99.90
45283;DHT22;31023;44.994;1.796;2022-12-29T03:49:10;10.10;99.90
45283;DHT22;31023;44.994;1.796;2022-12-29T03:51:36;10.10;99.90
45283;DHT22;31023;44.994;1.796;2022-12-29T03:54:02;10.10;99.90
45283;DHT22;31023;44.994;1.796;2022-12-29T03:56:28;10.10;99.90
45283;DHT22;31023;44.994;1.796;2022-12-29T03:58:54;10.10;99.90
45283;DHT22;31023;44.994;1.796;2022-12-29T04:01:19;10.00;99.90
45283;DHT22;31023;44.994;1.796;2022-12-29T04:03:45;10.00;99.90
45283;DHT22;31023;44.994;1.796;2022-12-29T04:06:11;10.00;99.90
45283;DHT22;31023;44.994;1.796;2022-12-29T04:08:37;9.90;99.90
45283;DHT22;31023;44.994;1.796;2022-12-29T04:11:02;9.90;99.90
45283;DHT22;31023;44.994;1.796;2022-12-29T04:13:28;9.90;99.90
45283;DHT22;31023;44.994;1.796;2022-12-29T04:15:54;9.80;99.90
45283;DHT22;31023;44.994;1.796;2022-12-29T04:18:20;9.90;99.90
45283;DHT22;31023;44.994;1.796;2022-12-29T04:20:45;9.80;99.90
45283;DHT22;31023;44.994;1.796;2022-12-29T04:23:28;9.90;99.90
45283;DHT22;31023;44.994;1.796;2022-12-29T04:25:54;9.80;99.90
45283;DHT22;31023;44.994;1.796;2022-12-29T04:28:20;9.90;99.90
45283;DHT22;31023;44.994;1.796;2022-12-29T04:30:46;9.90;99.90
45283;DHT22;31023;44.994;1.796;2022-12-29T04:33:12;9.90;99.90
45283;DHT22;31023;44.994;1.796;2022-12-29T04:35:38;9.90;99.90
45283;DHT22;31023;44.994;1.796;2022-12-29T04:38:04;9.90;99.90
45283;DHT22;31023;44.994;1.796;2022-12-29T04:40:30;9.90;99.90
45283;DHT22;31023;44.994;1.796;2022-12-29T04:42:55;9.90;99.90
45283;DHT22;31023;44.994;1.796;2022-12-29T04:45:21;9.90;99.90
45283;DHT22;31023;44.994;1.796;2022-12-29T04:47:47;9.90;99.90
45283;DHT22;31023;44.994;1.796;2022-12-29T04:50:13;9.90;99.90
45283;DHT22;31023;44.994;1.796;2022-12-29T04:52:38;9.90;99.90
45283;DHT22;31023;44.994;1.796;2022-12-29T04:55:05;10.00;99.90
45283;DHT22;31023;44.994;1.796;2022-12-29T04:57:31;10.00;99.90
45283;DHT22;31023;44.994;1.796;2022-12-29T04:59:56;10.00;99.90
45283;DHT22;31023;44.994;1.796;2022-12-29T05:02:22;10.00;99.90
45283;DHT22;31023;44.994;1.796;2022-12-29T05:04:48;10.00;99.90
45283;DHT22;31023;44.994;1.796;2022-12-29T05:07:14;10.00;99.90
45283;DHT22;31023;44.994;1.796;2022-12-29T05:09:40;10.00;99.90
45283;DHT22;31023;44.994;1.796;2022-12-29T05:12:06;10.00;99.90
45283;DHT22;31023;44.994;1.796;2022-12-29T05:14:32;10.00;99.90
45283;DHT22;31023;44.994;1.796;2022-12-29T05:16:58;10.00;99.90
45283;DHT22;31023;44.994;1.796;2022-12-29T05:19:23;10.00;99.90
45283;DHT22;31023;44.994;1.796;2022-12-29T05:21:49;9.90;99.90
45283;DHT22;31023;44.994;1.796;2022-12-29T05:24:15;10.00;99.90
45283;DHT22;31023;44.994;1.796;2022-12-29T05:26:41;10.00;99.90
45283;DHT22;31023;44.994;1.796;2022-12-29T05:29:07;10.10;99.90
45283;DHT22;31023;44.994;1.796;2022-12-29T05:31:33;10.10;99.90
45283;DHT22;31023;44.994;1.796;2022-12-29T05:34:01;10.00;99.90
45283;DHT22;31023;44.994;1.796;2022-12-29T05:36:27;10.00;99.90
45283;DHT22;31023;44.994;1.796;2022-12-29T05:38:53;10.10;99.90
45283;DHT22;31023;44.994;1.796;2022-12-29T05:41:19;10.10;99.90
45283;DHT22;31023;44.994;1.796;2022-12-29T05:43:44;9.90;99.90
45283;DHT22;31023;44.994;1.796;2022-12-29T05:46:10;10.00;99.90
45283;DHT22;31023;44.994;1.796;2022-12-29T05:48:36;9.90;99.90
45283;DHT22;31023;44.994;1.796;2022-12-29T05:51:01;9.90;99.90
45283;DHT22;31023;44.994;1.796;2022-12-29T05:53:27;9.90;99.90
45283;DHT22;31023;44.994;1.796;2022-12-29T05:55:53;10.00;99.90
45283;DHT22;31023;44.994;1.796;2022-12-29T05:58:19;10.00;99.90
45283;DHT22;31023;44.994;1.796;2022-12-29T06:00:45;9.90;99.90
45283;DHT22;31023;44.994;1.796;2022-12-29T06:03:11;9.80;99.90
45283;DHT22;31023;44.994;1.796;2022-12-29T06:05:37;9.90;99.90
45283;DHT22;31023;44.994;1.796;2022-12-29T06:08:03;9.80;99.90
45283;DHT22;31023;44.994;1.796;2022-12-29T06:10:28;9.90;99.90
45283;DHT22;31023;44.994;1.796;2022-12-29T06:12:54;9.90;99.90
45283;DHT22;31023;44.994;1.796;2022-12-29T06:15:20;9.90;99.90
45283;DHT22;31023;44.994;1.796;2022-12-29T06:17:45;9.90;99.90
45283;DHT22;31023;44.994;1.796;2022-12-29T06:20:11;9.90;99.90
45283;DHT22;31023;44.994;1.796;2022-12-29T06:22:37;9.90;99.90
45283;DHT22;31023;44.994;1.796;2022-12-29T06:25:03;9.90;99.90
45283;DHT22;31023;44.994;1.796;2022-12-29T06:27:31;9.90;99.90
45283;DHT22;31023;44.994;1.796;2022-12-29T06:29:57;9.90;99.90
45283;DHT22;31023;44.994;1.796;2022-12-29T06:32:22;9.80;99.90
45283;DHT22;31023;44.994;1.796;2022-12-29T06:34:48;9.90;99.90
45283;DHT22;31023;44.994;1.796;2022-12-29T06:37:14;9.80;99.90
45283;DHT22;31023;44.994;1.796;2022-12-29T06:39:40;9.80;99.90
45283;DHT22;31023;44.994;1.796;2022-12-29T06:42:06;9.80;99.90
45283;DHT22;31023;44.994;1.796;2022-12-29T06:44:31;9.90;99.90
45283;DHT22;31023;44.994;1.796;2022-12-29T06:46:57;9.80;99.90
45283;DHT22;31023;44.994;1.796;2022-12-29T06:49:23;9.70;99.90
45283;DHT22;31023;44.994;1.796;2022-12-29T06:51:49;9.70;99.90
45283;DHT22;31023;44.994;1.796;2022-12-29T06:54:15;9.80;99.90
45283;DHT22;31023;44.994;1.796;2022-12-29T06:56:40;9.80;99.90
45283;DHT22;31023;44.994;1.796;2022-12-29T06:59:06;9.80;99.90
45283;DHT22;31023;44.994;1.796;2022-12-29T07:01:32;9.80;99.90
45283;DHT22;31023;44.994;1.796;2022-12-29T07:03:57;9.90;99.90
45283;DHT22;31023;44.994;1.796;2022-12-29T07:06:23;9.80;99.90
45283;DHT22;31023;44.994;1.796;2022-12-29T07:08:49;9.90;99.90
45283;DHT22;31023;44.994;1.796;2022-12-29T07:11:15;9.90;99.90
45283;DHT22;31023;44.994;1.796;2022-12-29T07:13:41;9.80;99.90
45283;DHT22;31023;44.994;1.796;2022-12-29T07:16:08;9.80;99.90
45283;DHT22;31023;44.994;1.796;2022-12-29T07:18:34;9.80;99.90
45283;DHT22;31023;44.994;1.796;2022-12-29T07:21:00;9.80;99.90
45283;DHT22;31023;44.994;1.796;2022-12-29T07:23:26;9.80;99.90
45283;DHT22;31023;44.994;1.796;2022-12-29T07:26:03;9.80;99.90
45283;DHT22;31023;44.994;1.796;2022-12-29T07:28:29;9.80;99.90
45283;DHT22;31023;44.994;1.796;2022-12-29T07:30:55;9.80;99.90
45283;DHT22;31023;44.994;1.796;2022-12-29T07:33:21;9.80;99.90
45283;DHT22;31023;44.994;1.796;2022-12-29T07:35:47;9.80;99.90
45283;DHT22;31023;44.994;1.796;2022-12-29T07:38:12;9.80;99.90
45283;DHT22;31023;44.994;1.796;2022-12-29T07:40:38;9.90;99.90
45283;DHT22;31023;44.994;1.796;2022-12-29T07:43:04;9.90;99.90
45283;DHT22;31023;44.994;1.796;2022-12-29T07:45:30;9.90;99.90
45283;DHT22;31023;44.994;1.796;2022-12-29T07:47:55;9.90;99.90
45283;DHT22;31023;44.994;1.796;2022-12-29T07:50:21;9.90;99.90
45283;DHT22;31023;44.994;1.796;2022-12-29T07:52:47;9.80;99.90
45283;DHT22;31023;44.994;1.796;2022-12-29T07:55:14;9.90;99.90
45283;DHT22;31023;44.994;1.796;2022-12-29T07:57:40;9.90;99.90
45283;DHT22;31023;44.994;1.796;2022-12-29T08:00:06;9.90;99.90
45283;DHT22;31023;44.994;1.796;2022-12-29T08:02:31;9.90;99.90
45283;DHT22;31023;44.994;1.796;2022-12-29T08:04:57;9.90;99.90
45283;DHT22;31023;44.994;1.796;2022-12-29T08:07:23;9.90;99.90
45283;DHT22;31023;44.994;1.796;2022-12-29T08:09:48;9.90;99.90
45283;DHT22;31023;44.994;1.796;2022-12-29T08:12:14;9.90;99.90
45283;DHT22;31023;44.994;1.796;2022-12-29T08:14:40;9.90;99.90
45283;DHT22;31023;44.994;1.796;2022-12-29T08:17:06;10.00;99.90
45283;DHT22;31023;44.994;1.796;2022-12-29T08:19:31;9.90;99.90
45283;DHT22;31023;44.994;1.796;2022-12-29T08:21:57;9.90;99.90
45283;DHT22;31023;44.994;1.796;2022-12-29T08:24:23;10.00;99.90
45283;DHT22;31023;44.994;1.796;2022-12-29T08:26:48;10.00;99.90
45283;DHT22;31023;44.994;1.796;2022-12-29T08:29:14;10.00;99.90
45283;DHT22;31023;44.994;1.796;2022-12-29T08:31:40;9.90;99.90
45283;DHT22;31023;44.994;1.796;2022-12-29T08:34:05;9.90;99.90
45283;DHT22;31023;44.994;1.796;2022-12-29T08:36:31;9.90;99.90
45283;DHT22;31023;44.994;1.796;2022-12-29T08:38:57;9.90;99.90
45283;DHT22;31023;44.994;1.796;2022-12-29T08:41:23;9.90;99.90
45283;DHT22;31023;44.994;1.796;2022-12-29T08:43:49;10.00;99.90
45283;DHT22;31023;44.994;1.796;2022-12-29T08:46:15;10.00;99.90
45283;DHT22;31023;44.994;1.796;2022-12-29T08:48:41;10.00;99.90
45283;DHT22;31023;44.994;1.796;2022-12-29T08:51:07;10.00;99.90
45283;DHT22;31023;44.994;1.796;2022-12-29T08:53:34;10.00;99.90
45283;DHT22;31023;44.994;1.796;2022-12-29T08:56:00;10.10;99.90
45283;DHT22;31023;44.994;1.796;2022-12-29T08:58:26;10.20;99.90
45283;DHT22;31023;44.994;1.796;2022-12-29T09:00:56;10.20;99.90
45283;DHT22;31023;44.994;1.796;2022-12-29T09:03:23;10.30;99.90
45283;DHT22;31023;44.994;1.796;2022-12-29T09:05:50;10.30;99.90
45283;DHT22;31023;44.994;1.796;2022-12-29T09:08:16;10.20;99.90
45283;DHT22;31023;44.994;1.796;2022-12-29T09:10:43;10.20;99.90
45283;DHT22;31023;44.994;1.796;2022-12-29T09:13:09;10.20;99.90
45283;DHT22;31023;44.994;1.796;2022-12-29T09:15:35;10.20;99.90
45283;DHT22;31023;44.994;1.796;2022-12-29T09:18:01;10.20;99.90
45283;DHT22;31023;44.994;1.796;2022-12-29T09:20:27;10.10;99.90
45283;DHT22;31023;44.994;1.796;2022-12-29T09:22:52;10.10;99.90
45283;DHT22;31023;44.994;1.796;2022-12-29T09:25:19;10.10;99.90
45283;DHT22;31023;44.994;1.796;2022-12-29T09:27:45;10.10;99.90
45283;DHT22;31023;44.994;1.796;2022-12-29T09:30:13;10.20;99.90
45283;DHT22;31023;44.994;1.796;2022-12-29T09:32:40;10.20;99.90
45283;DHT22;31023;44.994;1.796;2022-12-29T09:35:06;10.30;99.90
45283;DHT22;31023;44.994;1.796;2022-12-29T09:37:32;10.30;99.90
45283;DHT22;31023;44.994;1.796;2022-12-29T09:39:58;10.30;99.90
45283;DHT22;31023;44.994;1.796;2022-12-29T09:47:28;10.40;99.90
45283;DHT22;31023;44.994;1.796;2022-12-29T09:50:13;10.30;99.90
45283;DHT22;31023;44.994;1.796;2022-12-29T09:52:58;10.20;99.90
45283;DHT22;31023;44.994;1.796;2022-12-29T09:55:42;10.20;99.90
45283;DHT22;31023;44.994;1.796;2022-12-29T10:06:21;10.30;99.90
45283;DHT22;31023;44.994;1.796;2022-12-29T10:22:54;10.40;99.90
45283;DHT22;31023;44.994;1.796;2022-12-29T10:25:25;10.40;99.90
45283;DHT22;31023;44.994;1.796;2022-12-29T10:27:53;10.50;99.90
45283;DHT22;31023;44.994;1.796;2022-12-29T10:30:20;10.60;99.90
45283;DHT22;31023;44.994;1.796;2022-12-29T10:32:56;10.60;99.90
45283;DHT22;31023;44.994;1.796;2022-12-29T10:35:28;10.70;99.90
45283;DHT22;31023;44.994;1.796;2022-12-29T10:38:11;10.70;99.90
45283;DHT22;31023;44.994;1.796;2022-12-29T10:43:26;10.60;99.90
45283;DHT22;31023;44.994;1.796;2022-12-29T10:45:54;10.60;99.90
45283;DHT22;31023;44.994;1.796;2022-12-29T10:48:28;10.60;99.90
45283;DHT22;31023;44.994;1.796;2022-12-29T10:50:57;10.60;99.90
45283;DHT22;31023;44.994;1.796;2022-12-29T10:53:27;10.60;99.90
45283;DHT22;31023;44.994;1.796;2022-12-29T10:55:57;10.50;99.90
45283;DHT22;31023;44.994;1.796;2022-12-29T10:58:25;10.50;99.90
45283;DHT22;31023;44.994;1.796;2022-12-29T11:00:53;10.50;99.90
45283;DHT22;31023;44.994;1.796;2022-12-29T11:06:12;10.60;99.90
45283;DHT22;31023;44.994;1.796;2022-12-29T11:08:49;10.60;99.90
45283;DHT22;31023;44.994;1.796;2022-12-29T11:11:23;10.60;99.90
45283;DHT22;31023;44.994;1.796;2022-12-29T11:13:56;10.60;99.90
45283;DHT22;31023;44.994;1.796;2022-12-29T11:16:31;10.60;99.90
45283;DHT22;31023;44.994;1.796;2022-12-29T11:18:58;10.50;99.90
45283;DHT22;31023;44.994;1.796;2022-12-29T11:21:31;10.50;99.90
45283;DHT22;31023;44.994;1.796;2022-12-29T11:24:03;10.60;99.90
45283;DHT22;31023;44.994;1.796;2022-12-29T11:26:31;10.60;99.90
45283;DHT22;31023;44.994;1.796;2022-12-29T11:31:42;10.80;99.90
45283;DHT22;31023;44.994;1.796;2022-12-29T11:34:08;10.80;99.90
45283;DHT22;31023;44.994;1.796;2022-12-29T11:36:35;10.80;99.90
45283;DHT22;31023;44.994;1.796;2022-12-29T11:39:01;10.80;99.90
45283;DHT22;31023;44.994;1.796;2022-12-29T11:41:31;10.90;99.90
45283;DHT22;31023;44.994;1.796;2022-12-29T11:44:00;10.90;99.90
45283;DHT22;31023;44.994;1.796;2022-12-29T11:46:36;11.00;99.90
45283;DHT22;31023;44.994;1.796;2022-12-29T11:49:03;11.30;99.90
45283;DHT22;31023;44.994;1.796;2022-12-29T11:51:38;11.30;99.90
45283;DHT22;31023;44.994;1.796;2022-12-29T11:54:05;11.10;99.90
45283;DHT22;31023;44.994;1.796;2022-12-29T11:56:35;11.00;99.90
45283;DHT22;31023;44.994;1.796;2022-12-29T12:01:56;11.30;99.90
45283;DHT22;31023;44.994;1.796;2022-12-29T12:04:28;11.40;99.90
45283;DHT22;31023;44.994;1.796;2022-12-29T12:09:43;11.40;99.90
45283;DHT22;31023;44.994;1.796;2022-12-29T12:12:28;11.40;99.90
45283;DHT22;31023;44.994;1.796;2022-12-29T12:14:56;11.20;99.90
45283;DHT22;31023;44.994;1.796;2022-12-29T12:17:51;11.20;99.90
45283;DHT22;31023;44.994;1.796;2022-12-29T12:20:28;11.10;99.90
45283;DHT22;31023;44.994;1.796;2022-12-29T12:25:37;11.20;99.90
45283;DHT22;31023;44.994;1.796;2022-12-29T12:28:17;11.20;99.90
45283;DHT22;31023;44.994;1.796;2022-12-29T12:30:49;11.20;99.90
45283;DHT22;31023;44.994;1.796;2022-12-29T12:33:28;11.10;99.90
45283;DHT22;31023;44.994;1.796;2022-12-29T12:39:37;11.00;99.90
45283;DHT22;31023;44.994;1.796;2022-12-29T12:47:53;11.10;99.90
45283;DHT22;31023;44.994;1.796;2022-12-29T12:50:40;11.10;99.90
45283;DHT22;31023;44.994;1.796;2022-12-29T12:53:19;11.00;99.90
45283;DHT22;31023;44.994;1.796;2022-12-29T13:07:12;11.10;99.90
45283;DHT22;31023;44.994;1.796;2022-12-29T13:17:47;11.10;99.90
45283;DHT22;31023;44.994;1.796;2022-12-29T13:36:41;10.90;99.90
45283;DHT22;31023;44.994;1.796;2022-12-29T13:39:17;10.80;99.90
45283;DHT22;31023;44.994;1.796;2022-12-29T13:41:51;10.80;99.90
45283;DHT22;31023;44.994;1.796;2022-12-29T13:44:25;10.80;99.90
45283;DHT22;31023;44.994;1.796;2022-12-29T13:46:55;10.80;99.90
45283;DHT22;31023;44.994;1.796;2022-12-29T13:49:22;10.80;99.90
45283;DHT22;31023;44.994;1.796;2022-12-29T13:52:07;10.70;99.90
45283;DHT22;31023;44.994;1.796;2022-12-29T13:54:55;10.70;99.90
45283;DHT22;31023;44.994;1.796;2022-12-29T14:00:20;10.80;99.90
45283;DHT22;31023;44.994;1.796;2022-12-29T14:07:44;10.70;99.90
45283;DHT22;31023;44.994;1.796;2022-12-29T14:13:15;10.70;99.90
45283;DHT22;31023;44.994;1.796;2022-12-29T14:15:43;10.70;99.90
45283;DHT22;31023;44.994;1.796;2022-12-29T14:20:50;10.60;99.90
45283;DHT22;31023;44.994;1.796;2022-12-29T14:23:43;10.60;99.90
45283;DHT22;31023;44.994;1.796;2022-12-29T14:28:48;10.40;99.90
45283;DHT22;31023;44.994;1.796;2022-12-29T14:33:41;10.40;99.90
45283;DHT22;31023;44.994;1.796;2022-12-29T14:36:21;10.30;99.90
45283;DHT22;31023;44.994;1.796;2022-12-29T14:38:49;10.30;99.90
45283;DHT22;31023;44.994;1.796;2022-12-29T14:41:30;10.40;99.90
45283;DHT22;31023;44.994;1.796;2022-12-29T14:44:00;10.40;99.90
45283;DHT22;31023;44.994;1.796;2022-12-29T14:46:49;10.30;99.90
45283;DHT22;31023;44.994;1.796;2022-12-29T14:49:30;10.30;99.90
45283;DHT22;31023;44.994;1.796;2022-12-29T14:52:19;10.20;99.90
45283;DHT22;31023;44.994;1.796;2022-12-29T14:54:48;10.20;99.90
45283;DHT22;31023;44.994;1.796;2022-12-29T14:57:37;10.20;99.90
45283;DHT22;31023;44.994;1.796;2022-12-29T15:00:18;10.10;99.90
45283;DHT22;31023;44.994;1.796;2022-12-29T15:02:54;10.20;99.90
45283;DHT22;31023;44.994;1.796;2022-12-29T15:05:31;10.20;99.90
45283;DHT22;31023;44.994;1.796;2022-12-29T15:07:58;10.10;99.90
45283;DHT22;31023;44.994;1.796;2022-12-29T15:10:26;9.90;99.90
45283;DHT22;31023;44.994;1.796;2022-12-29T15:13:03;9.70;99.90
45283;DHT22;31023;44.994;1.796;2022-12-29T15:15:36;9.70;99.90
45283;DHT22;31023;44.994;1.796;2022-12-29T15:18:31;9.80;99.90
45283;DHT22;31023;44.994;1.796;2022-12-29T15:21:05;9.70;99.90
45283;DHT22;31023;44.994;1.796;2022-12-29T15:23:34;9.70;99.90
45283;DHT22;31023;44.994;1.796;2022-12-29T15:26:07;9.70;99.90
45283;DHT22;31023;44.994;1.796;2022-12-29T15:31:15;9.90;99.90
45283;DHT22;31023;44.994;1.796;2022-12-29T15:33:43;9.90;99.90
45283;DHT22;31023;44.994;1.796;2022-12-29T15:36:16;9.80;99.90
45283;DHT22;31023;44.994;1.796;2022-12-29T15:38:43;9.70;99.90
45283;DHT22;31023;44.994;1.796;2022-12-29T15:46:31;9.90;99.90
45283;DHT22;31023;44.994;1.796;2022-12-29T15:48:57;9.80;99.90
45283;DHT22;31023;44.994;1.796;2022-12-29T15:51:28;9.90;99.90
45283;DHT22;31023;44.994;1.796;2022-12-29T15:53:55;10.00;99.90
45283;DHT22;31023;44.994;1.796;2022-12-29T15:56:21;10.10;99.90
45283;DHT22;31023;44.994;1.796;2022-12-29T15:58:49;10.10;99.90
45283;DHT22;31023;44.994;1.796;2022-12-29T16:01:34;10.20;99.90
45283;DHT22;31023;44.994;1.796;2022-12-29T16:04:04;10.20;99.90
45283;DHT22;31023;44.994;1.796;2022-12-29T16:06:39;10.20;99.90
45283;DHT22;31023;44.994;1.796;2022-12-29T16:09:17;10.10;99.90
45283;DHT22;31023;44.994;1.796;2022-12-29T16:11:47;10.20;99.90
45283;DHT22;31023;44.994;1.796;2022-12-29T16:14:19;10.30;99.90
45283;DHT22;31023;44.994;1.796;2022-12-29T16:16:46;10.20;99.90
45283;DHT22;31023;44.994;1.796;2022-12-29T16:19:35;10.20;99.90
45283;DHT22;31023;44.994;1.796;2022-12-29T16:22:03;10.20;99.90
45283;DHT22;31023;44.994;1.796;2022-12-29T16:24:38;10.20;99.90
45283;DHT22;31023;44.994;1.796;2022-12-29T16:27:32;10.20;99.90
45283;DHT22;31023;44.994;1.796;2022-12-29T16:30:04;10.20;99.90
45283;DHT22;31023;44.994;1.796;2022-12-29T16:32:31;10.10;99.90
45283;DHT22;31023;44.994;1.796;2022-12-29T16:35:23;10.10;99.90
45283;DHT22;31023;44.994;1.796;2022-12-29T16:38:13;10.10;99.90
45283;DHT22;31023;44.994;1.796;2022-12-29T16:43:27;10.20;99.90
45283;DHT22;31023;44.994;1.796;2022-12-29T16:46:16;10.20;99.90
45283;DHT22;31023;44.994;1.796;2022-12-29T16:48:54;10.10;99.90
45283;DHT22;31023;44.994;1.796;2022-12-29T16:51:30;10.00;99.90
45283;DHT22;31023;44.994;1.796;2022-12-29T16:53:57;10.00;99.90
45283;DHT22;31023;44.994;1.796;2022-12-29T16:56:26;10.00;99.90
45283;DHT22;31023;44.994;1.796;2022-12-29T16:59:07;9.90;99.90
45283;DHT22;31023;44.994;1.796;2022-12-29T17:01:40;9.90;99.90
45283;DHT22;31023;44.994;1.796;2022-12-29T17:04:09;9.90;99.90
45283;DHT22;31023;44.994;1.796;2022-12-29T17:06:35;9.90;99.90
45283;DHT22;31023;44.994;1.796;2022-12-29T17:09:01;9.90;99.90
45283;DHT22;31023;44.994;1.796;2022-12-29T17:11:33;9.90;99.90
45283;DHT22;31023;44.994;1.796;2022-12-29T17:14:25;9.90;99.90
45283;DHT22;31023;44.994;1.796;2022-12-29T17:16:53;10.00;99.90
45283;DHT22;31023;44.994;1.796;2022-12-29T17:19:28;10.00;99.90
45283;DHT22;31023;44.994;1.796;2022-12-29T17:21:54;10.00;99.90
45283;DHT22;31023;44.994;1.796;2022-12-29T17:24:20;10.00;99.90
45283;DHT22;31023;44.994;1.796;2022-12-29T17:26:50;10.00;99.90
45283;DHT22;31023;44.994;1.796;2022-12-29T17:29:38;10.00;99.90
45283;DHT22;31023;44.994;1.796;2022-12-29T17:32:06;10.00;99.90
45283;DHT22;31023;44.994;1.796;2022-12-29T17:34:34;10.00;99.90
45283;DHT22;31023;44.994;1.796;2022-12-29T17:37:00;10.00;99.90
45283;DHT22;31023;44.994;1.796;2022-12-29T17:39:26;10.00;99.90
45283;DHT22;31023;44.994;1.796;2022-12-29T17:41:51;10.00;99.90
45283;DHT22;31023;44.994;1.796;2022-12-29T17:44:19;10.00;99.90
45283;DHT22;31023;44.994;1.796;2022-12-29T17:46:46;10.00;99.90
45283;DHT22;31023;44.994;1.796;2022-12-29T17:49:14;10.00;99.90
45283;DHT22;31023;44.994;1.796;2022-12-29T17:51:45;9.90;99.90
45283;DHT22;31023;44.994;1.796;2022-12-29T17:54:20;9.90;99.90
45283;DHT22;31023;44.994;1.796;2022-12-29T17:56:46;10.00;99.90
45283;DHT22;31023;44.994;1.796;2022-12-29T17:59:12;9.90;99.90
45283;DHT22;31023;44.994;1.796;2022-12-29T18:01:39;9.90;99.90
45283;DHT22;31023;44.994;1.796;2022-12-29T18:04:05;9.90;99.90
45283;DHT22;31023;44.994;1.796;2022-12-29T18:06:30;9.90;99.90
45283;DHT22;31023;44.994;1.796;2022-12-29T18:08:56;9.90;99.90
45283;DHT22;31023;44.994;1.796;2022-12-29T18:11:23;9.90;99.90
45283;DHT22;31023;44.994;1.796;2022-12-29T18:13:49;9.90;99.90
45283;DHT22;31023;44.994;1.796;2022-12-29T18:16:15;9.90;99.90
45283;DHT22;31023;44.994;1.796;2022-12-29T18:18:41;9.80;99.90
45283;DHT22;31023;44.994;1.796;2022-12-29T18:21:19;9.80;99.90
45283;DHT22;31023;44.994;1.796;2022-12-29T18:23:46;9.90;99.90
45283;DHT22;31023;44.994;1.796;2022-12-29T18:26:18;9.90;99.90
45283;DHT22;31023;44.994;1.796;2022-12-29T18:28:45;9.80;99.90
45283;DHT22;31023;44.994;1.796;2022-12-29T18:31:22;9.80;99.90